createdAt,value
2023-03-02T00:02:21.281Z,3.45
2023-03-02T00:04:54.863Z,3.33
2023-03-02T00:07:27.094Z,3.29
2023-03-02T00:09:55.102Z,3.21
2023-03-02T00:12:21.826Z,3.31
2023-03-02T00:14:48.377Z,3.21
2023-03-02T00:17:14.960Z,3.18
2023-03-02T00:19:41.941Z,3.17
2023-03-02T00:22:10.138Z,3.20
2023-03-02T00:24:37.644Z,3.06
2023-03-02T00:27:04.245Z,3.13
2023-03-02T00:29:30.806Z,3.14
2023-03-02T00:31:57.483Z,3.10
2023-03-02T00:34:24.094Z,3.10
2023-03-02T00:36:50.572Z,3.07
2023-03-02T00:39:20.060Z,2.99
2023-03-02T00:41:48.278Z,3.07
2023-03-02T00:44:17.653Z,2.91
2023-03-02T00:46:45.118Z,2.94
2023-03-02T00:49:12.538Z,2.87
2023-03-02T00:51:39.028Z,2.95
2023-03-02T00:54:06.141Z,2.95
2023-03-02T00:56:33.228Z,2.94
2023-03-02T00:59:05.481Z,2.99
2023-03-02T01:01:32.641Z,3.01
2023-03-02T01:03:59.245Z,3.37
2023-03-02T01:06:25.844Z,3.06
2023-03-02T01:08:52.377Z,3.41
2023-03-02T01:11:21.583Z,3.02
2023-03-02T01:13:49.262Z,2.95
2023-03-02T01:16:16.278Z,2.91
2023-03-02T01:18:42.923Z,2.88
2023-03-02T01:21:13.517Z,2.91
2023-03-02T01:23:40.466Z,3.17
2023-03-02T01:26:07.345Z,2.79
2023-03-02T01:28:33.873Z,2.84
2023-03-02T01:31:02.645Z,2.89
2023-03-02T01:33:29.455Z,2.71
2023-03-02T01:35:56.181Z,2.74
2023-03-02T01:38:22.798Z,2.76
2023-03-02T01:40:49.369Z,2.79
2023-03-02T01:43:17.853Z,2.72
2023-03-02T01:45:46.185Z,2.73
2023-03-02T01:48:21.721Z,2.68
2023-03-02T01:50:48.268Z,3.10
2023-03-02T01:53:16.543Z,2.63
2023-03-02T01:55:44.423Z,2.57
2023-03-02T01:58:13.292Z,2.39
2023-03-02T02:00:40.431Z,2.94
2023-03-02T02:03:16.232Z,2.47
2023-03-02T02:05:46.417Z,2.48
2023-03-02T02:08:13.670Z,2.45
2023-03-02T02:10:40.606Z,2.33
2023-03-02T02:13:11.219Z,2.48
2023-03-02T02:15:38.946Z,2.41
2023-03-02T02:18:06.008Z,2.48
2023-03-02T02:20:37.905Z,2.47
2023-03-02T02:23:19.386Z,2.86
2023-03-02T02:25:53.030Z,2.48
2023-03-02T02:28:25.161Z,2.44
2023-03-02T02:30:55.226Z,2.83
2023-03-02T02:33:24.551Z,2.44
2023-03-02T02:36:04.675Z,2.42
2023-03-02T02:38:33.017Z,2.27
2023-03-02T02:41:04.395Z,2.33
2023-03-02T02:43:34.198Z,2.73
2023-03-02T02:46:01.987Z,2.77
2023-03-02T02:48:31.918Z,2.37
2023-03-02T02:51:00.440Z,2.23
2023-03-02T02:53:34.950Z,2.32
2023-03-02T02:56:02.871Z,2.19
2023-03-02T02:58:54.193Z,2.40
2023-03-02T03:01:25.856Z,2.15
2023-03-02T03:03:56.799Z,2.59
2023-03-02T03:06:27.019Z,2.29
2023-03-02T03:08:57.423Z,2.16
2023-03-02T03:11:41.518Z,2.60
2023-03-02T03:14:11.217Z,2.66
2023-03-02T03:16:40.977Z,2.25
2023-03-02T03:19:19.357Z,2.30
2023-03-02T03:21:49.746Z,2.10
2023-03-02T03:24:16.925Z,2.54
2023-03-02T03:26:44.426Z,2.59
2023-03-02T03:29:12.931Z,2.61
2023-03-02T03:31:39.960Z,2.26
2023-03-02T03:34:07.360Z,2.56
2023-03-02T03:36:36.854Z,2.55
2023-03-02T03:39:05.622Z,2.13
2023-03-02T03:41:32.791Z,2.12
2023-03-02T03:43:59.658Z,2.51
2023-03-02T03:46:28.861Z,2.14
2023-03-02T03:48:55.659Z,2.10
2023-03-02T03:51:22.698Z,2.13
2023-03-02T03:53:59.923Z,2.07
2023-03-02T03:56:34.257Z,2.43
2023-03-02T03:59:07.910Z,2.06
2023-03-02T04:01:52.170Z,2.04
2023-03-02T04:04:26.354Z,2.03
2023-03-02T04:06:53.768Z,2.37
2023-03-02T04:09:22.314Z,2.01
2023-03-02T04:11:51.217Z,1.94
2023-03-02T04:14:19.274Z,2.01
2023-03-02T04:16:46.604Z,2.00
2023-03-02T04:19:14.344Z,2.33
2023-03-02T04:21:45.142Z,1.91
2023-03-02T04:24:13.394Z,1.80
2023-03-02T04:26:42.071Z,2.25
2023-03-02T04:29:09.764Z,2.28
2023-03-02T04:31:38.522Z,1.88
2023-03-02T04:34:06.457Z,1.86
2023-03-02T04:36:37.515Z,1.82
2023-03-02T04:39:07.055Z,1.80
2023-03-02T04:41:33.803Z,1.79
2023-03-02T04:44:00.388Z,1.71
2023-03-02T04:46:27.847Z,1.71
2023-03-02T04:48:54.746Z,1.69
2023-03-02T04:51:27.761Z,2.06
2023-03-02T04:54:00.859Z,2.11
2023-03-02T04:56:27.746Z,2.11
2023-03-02T04:58:54.981Z,1.72
2023-03-02T05:01:22.051Z,1.71
2023-03-02T05:03:49.283Z,1.68
2023-03-02T05:06:16.818Z,1.58
2023-03-02T05:08:44.244Z,1.65
2023-03-02T05:11:21.817Z,1.63
2023-03-02T05:13:53.761Z,1.56
2023-03-02T05:16:20.886Z,1.96
2023-03-02T05:18:47.902Z,1.98
2023-03-02T05:21:16.060Z,1.59
2023-03-02T05:23:43.132Z,1.95
2023-03-02T05:26:10.254Z,1.94
2023-03-02T05:28:37.006Z,1.96
2023-03-02T05:31:03.809Z,1.56
2023-03-02T05:33:30.659Z,1.46
2023-03-02T05:35:58.079Z,1.50
2023-03-02T05:38:24.633Z,1.85
2023-03-02T05:40:51.152Z,1.88
2023-03-02T05:43:21.056Z,1.46
2023-03-02T05:45:47.648Z,1.47
2023-03-02T05:48:14.954Z,1.47
2023-03-02T05:50:42.016Z,1.41
2023-03-02T05:53:09.059Z,1.43
2023-03-02T05:55:37.022Z,1.33
2023-03-02T05:58:06.762Z,1.66
2023-03-02T06:00:33.474Z,1.39
2023-03-02T06:03:00.018Z,1.39
2023-03-02T06:05:26.631Z,1.35
2023-03-02T06:07:53.809Z,1.65
2023-03-02T06:10:20.573Z,1.70
2023-03-02T06:12:47.217Z,1.72
2023-03-02T06:15:13.910Z,1.71
2023-03-02T06:17:40.711Z,1.33
2023-03-02T06:20:10.267Z,1.26
2023-03-02T06:22:42.387Z,1.15
2023-03-02T06:25:11.543Z,1.17
2023-03-02T06:27:39.220Z,1.19
2023-03-02T06:30:07.026Z,1.60
2023-03-02T06:32:35.184Z,1.70
2023-03-02T06:35:02.368Z,1.15
2023-03-02T06:37:30.043Z,1.22
2023-03-02T06:39:57.279Z,1.20
2023-03-02T06:42:25.549Z,1.21
2023-03-02T06:44:54.625Z,1.53
2023-03-02T06:47:22.400Z,1.61
2023-03-02T06:49:49.314Z,1.67
2023-03-02T06:52:16.244Z,1.26
2023-03-02T06:54:42.776Z,1.22
2023-03-02T06:57:09.347Z,1.12
2023-03-02T06:59:36.083Z,1.55
2023-03-02T07:02:02.910Z,1.23
2023-03-02T07:04:29.621Z,1.25
2023-03-02T07:06:56.513Z,1.24
2023-03-02T07:09:23.117Z,1.21
2023-03-02T07:11:49.609Z,1.26
2023-03-02T07:14:16.124Z,1.55
2023-03-02T07:16:42.666Z,1.23
2023-03-02T07:19:16.217Z,1.59
2023-03-02T07:21:42.802Z,1.18
2023-03-02T07:24:09.343Z,1.57
2023-03-02T07:26:35.919Z,1.29
2023-03-02T07:29:02.492Z,1.29
2023-03-02T07:31:29.173Z,1.32
2023-03-02T07:33:55.758Z,1.33
2023-03-02T07:36:22.293Z,1.32
2023-03-02T07:38:48.886Z,1.39
2023-03-02T07:41:16.857Z,1.64
2023-03-02T07:43:43.603Z,1.74
2023-03-02T07:46:10.356Z,1.80
2023-03-02T07:48:37.024Z,1.84
2023-03-02T07:51:05.917Z,1.86
2023-03-02T07:53:32.814Z,1.52
2023-03-02T07:56:01.377Z,1.44
2023-03-02T07:58:27.982Z,1.81
2023-03-02T08:00:54.611Z,1.47
2023-03-02T08:03:21.219Z,1.82
2023-03-02T08:05:47.754Z,1.54
2023-03-02T08:08:14.331Z,1.86
2023-03-02T08:10:40.843Z,1.95
2023-03-02T08:13:07.556Z,1.96
2023-03-02T08:15:34.163Z,1.95
2023-03-02T08:18:00.794Z,2.02
2023-03-02T08:20:27.360Z,2.06
2023-03-02T08:22:53.941Z,2.09
2023-03-02T08:25:20.634Z,2.13
2023-03-02T08:27:47.285Z,2.17
2023-03-02T08:30:14.103Z,1.89
2023-03-02T08:32:40.735Z,1.91
2023-03-02T08:35:08.202Z,1.95
2023-03-02T08:37:34.757Z,1.98
2023-03-02T08:40:01.356Z,2.01
2023-03-02T08:42:27.948Z,2.03
2023-03-02T08:44:54.586Z,2.07
2023-03-02T08:47:21.168Z,2.09
2023-03-02T08:49:48.293Z,2.14
2023-03-02T08:52:15.250Z,2.44
2023-03-02T08:54:42.072Z,2.22
2023-03-02T08:57:11.834Z,2.24
2023-03-02T08:59:38.388Z,2.26
2023-03-02T09:02:05.076Z,2.57
2023-03-02T09:04:31.814Z,2.66
2023-03-02T09:06:58.513Z,2.47
2023-03-02T09:09:25.156Z,2.47
2023-03-02T09:11:51.721Z,2.80
2023-03-02T09:14:18.268Z,2.85
2023-03-02T09:16:45.509Z,2.92
2023-03-02T09:19:13.331Z,2.98
2023-03-02T09:21:39.889Z,3.01
2023-03-02T09:24:06.592Z,2.81
2023-03-02T09:26:34.040Z,2.82
2023-03-02T09:29:00.747Z,2.82
2023-03-02T09:31:30.045Z,2.89
2023-03-02T09:33:57.162Z,2.96
2023-03-02T09:36:25.729Z,3.26
2023-03-02T09:38:52.955Z,3.05
2023-03-02T09:41:19.620Z,3.11
2023-03-02T09:44:07.495Z,3.15
2023-03-02T09:46:44.366Z,3.21
2023-03-02T09:49:40.871Z,3.30
2023-03-02T09:52:16.433Z,3.56
2023-03-02T09:54:43.162Z,3.38
2023-03-02T09:57:23.986Z,3.48
2023-03-02T10:00:18.285Z,3.60
2023-03-02T10:03:11.367Z,3.83
2023-03-02T10:06:01.836Z,3.81
2023-03-02T10:08:34.045Z,3.60
2023-03-02T10:11:27.848Z,3.77
2023-03-02T10:14:07.232Z,3.88
2023-03-02T10:17:04.570Z,3.83
2023-03-02T10:19:57.857Z,3.95
2023-03-02T10:22:29.856Z,3.89
2023-03-02T10:25:08.183Z,4.21
2023-03-02T10:27:39.358Z,4.01
2023-03-02T10:30:19.192Z,4.09
2023-03-02T10:32:49.236Z,4.12
2023-03-02T10:35:25.009Z,4.24
2023-03-02T10:37:57.010Z,4.27
2023-03-02T10:40:26.318Z,4.56
2023-03-02T10:42:54.445Z,4.36
2023-03-02T10:45:32.066Z,4.46
2023-03-02T10:48:04.549Z,4.48
2023-03-02T10:50:31.565Z,4.50
2023-03-02T10:53:00.735Z,4.57
2023-03-02T10:55:28.895Z,4.65
2023-03-02T10:58:19.903Z,4.69
2023-03-02T11:01:03.861Z,4.75
2023-03-02T11:03:31.030Z,4.77
2023-03-02T11:06:00.393Z,4.84
2023-03-02T11:08:28.547Z,4.88
2023-03-02T11:11:00.892Z,4.94
2023-03-02T11:13:33.170Z,5.06
2023-03-02T11:16:23.963Z,5.24
2023-03-02T11:19:03.005Z,5.20
2023-03-02T11:21:46.655Z,5.12
2023-03-02T11:24:29.326Z,5.25
2023-03-02T11:27:22.542Z,5.42
2023-03-02T11:29:57.457Z,5.48
2023-03-02T11:32:54.330Z,5.54
2023-03-02T11:35:37.068Z,5.56
2023-03-02T11:38:27.373Z,5.67
2023-03-02T11:41:03.114Z,5.67
2023-03-02T11:43:29.735Z,5.64
2023-03-02T11:46:00.501Z,5.71
2023-03-02T11:48:36.798Z,5.73
2023-03-02T11:51:06.464Z,5.85
2023-03-02T11:53:54.128Z,6.07
2023-03-02T11:56:21.204Z,6.09
2023-03-02T11:58:54.947Z,6.13
2023-03-02T12:01:25.334Z,6.09
2023-03-02T12:03:52.467Z,6.12
2023-03-02T12:06:21.693Z,6.23
2023-03-02T12:08:51.884Z,6.31
2023-03-02T12:11:18.503Z,6.51
2023-03-02T12:13:49.221Z,6.45
2023-03-02T12:16:23.456Z,6.62
2023-03-02T12:18:51.416Z,6.60
2023-03-02T12:21:20.635Z,6.72
2023-03-02T12:23:47.358Z,6.72
2023-03-02T12:26:19.686Z,6.95
2023-03-02T12:28:56.768Z,6.94
2023-03-02T12:31:24.863Z,6.97
2023-03-02T12:33:53.055Z,7.01
2023-03-02T12:36:41.317Z,7.27
2023-03-02T12:39:30.666Z,7.17
2023-03-02T12:42:24.906Z,7.38
2023-03-02T12:45:03.172Z,7.26
2023-03-02T12:47:32.098Z,7.34
2023-03-02T12:50:17.096Z,7.50
2023-03-02T12:52:43.676Z,7.49
2023-03-02T12:55:10.293Z,7.57
2023-03-02T12:57:48.990Z,7.72
2023-03-02T13:00:19.110Z,7.68
2023-03-02T13:02:48.970Z,7.78
2023-03-02T13:05:22.988Z,8.12
2023-03-02T13:08:13.290Z,8.04
2023-03-02T13:10:42.986Z,7.99
2023-03-02T13:13:18.871Z,8.10
2023-03-02T13:15:57.837Z,8.13
2023-03-02T13:18:28.233Z,8.19
2023-03-02T13:20:55.691Z,8.27
2023-03-02T13:23:22.307Z,8.28
2023-03-02T13:25:52.427Z,8.29
2023-03-02T13:28:24.358Z,8.40
2023-03-02T13:30:56.683Z,8.76
2023-03-02T13:33:25.088Z,8.58
2023-03-02T13:35:51.864Z,8.77
2023-03-02T13:38:21.119Z,8.59
2023-03-02T13:40:51.356Z,8.60
2023-03-02T13:43:35.163Z,8.75
2023-03-02T13:46:04.750Z,8.75
2023-03-02T13:48:32.555Z,8.78
2023-03-02T13:51:14.074Z,8.96
2023-03-02T13:53:45.634Z,8.92
2023-03-02T13:56:16.137Z,9.04
2023-03-02T13:58:42.973Z,9.03
2023-03-02T14:01:11.496Z,9.09
2023-03-02T14:03:38.115Z,9.29
2023-03-02T14:06:06.048Z,9.18
2023-03-02T14:08:32.602Z,9.20
2023-03-02T14:11:01.186Z,9.26
2023-03-02T14:13:40.739Z,9.47
2023-03-02T14:16:11.027Z,9.46
2023-03-02T14:18:52.557Z,9.57
2023-03-02T14:21:22.343Z,9.56
2023-03-02T14:23:49.999Z,9.54
2023-03-02T14:26:28.616Z,9.63
2023-03-02T14:29:04.944Z,9.74
2023-03-02T14:31:32.550Z,9.76
2023-03-02T14:34:00.345Z,9.84
2023-03-02T14:36:33.711Z,9.85
2023-03-02T14:39:03.962Z,9.94
2023-03-02T14:41:31.569Z,9.98
2023-03-02T14:43:59.354Z,9.96
2023-03-02T14:46:25.923Z,10.12
2023-03-02T14:48:52.475Z,10.13
2023-03-02T14:51:26.347Z,10.23
2023-03-02T14:53:56.292Z,10.22
2023-03-02T14:56:23.439Z,10.31
2023-03-02T14:58:51.667Z,10.33
2023-03-02T15:01:19.174Z,10.44
2023-03-02T15:03:46.567Z,10.49
2023-03-02T15:06:26.042Z,10.57
2023-03-02T15:08:53.973Z,10.48
2023-03-02T15:11:20.654Z,10.54
2023-03-02T15:13:47.250Z,10.52
2023-03-02T15:16:14.262Z,10.55
2023-03-02T15:18:40.966Z,10.68
2023-03-02T15:21:07.634Z,10.68
2023-03-02T15:23:34.388Z,10.63
2023-03-02T15:26:01.887Z,10.70
2023-03-02T15:28:29.014Z,10.78
2023-03-02T15:30:56.169Z,10.79
2023-03-02T15:33:22.728Z,10.68
2023-03-02T15:35:55.433Z,10.69
2023-03-02T15:38:22.377Z,10.81
2023-03-02T15:40:48.942Z,10.77
2023-03-02T15:43:15.459Z,10.74
2023-03-02T15:45:46.380Z,10.79
2023-03-02T15:48:13.782Z,10.94
2023-03-02T15:50:40.571Z,10.94
2023-03-02T15:53:07.197Z,11.00
2023-03-02T15:55:33.834Z,11.02
2023-03-02T15:58:00.391Z,10.96
2023-03-02T16:00:26.984Z,10.93
2023-03-02T16:02:53.608Z,11.01
2023-03-02T16:05:20.224Z,10.96
2023-03-02T16:07:46.752Z,10.95
2023-03-02T16:10:16.307Z,10.92
2023-03-02T16:12:43.472Z,10.88
2023-03-02T16:15:10.502Z,11.00
2023-03-02T16:17:36.997Z,10.98
2023-03-02T16:20:03.943Z,10.93
2023-03-02T16:22:30.507Z,11.00
2023-03-02T16:24:57.017Z,10.91
2023-03-02T16:27:23.585Z,10.87
2023-03-02T16:29:50.374Z,10.85
2023-03-02T16:32:17.001Z,10.90
2023-03-02T16:34:43.639Z,10.80
2023-03-02T16:37:10.215Z,10.70
2023-03-02T16:39:36.935Z,10.66
2023-03-02T16:42:04.270Z,10.57
2023-03-02T16:44:30.886Z,10.48
2023-03-02T16:46:57.711Z,10.47
2023-03-02T16:49:24.526Z,10.39
2023-03-02T16:51:57.744Z,10.35
2023-03-02T16:54:24.790Z,10.30
2023-03-02T16:56:51.380Z,10.18
2023-03-02T16:59:17.926Z,10.06
2023-03-02T17:01:44.568Z,10.16
2023-03-02T17:04:11.228Z,9.96
2023-03-02T17:06:38.901Z,9.86
2023-03-02T17:09:05.430Z,9.84
2023-03-02T17:11:31.992Z,9.80
2023-03-02T17:13:58.520Z,9.82
2023-03-02T17:16:25.069Z,9.69
2023-03-02T17:18:51.598Z,9.58
2023-03-02T17:21:18.169Z,9.53
2023-03-02T17:23:47.837Z,9.44
2023-03-02T17:26:15.659Z,9.42
2023-03-02T17:28:42.203Z,9.40
2023-03-02T17:31:08.793Z,9.28
2023-03-02T17:33:36.986Z,9.24
2023-03-02T17:36:09.666Z,9.24
2023-03-02T17:38:36.271Z,9.17
2023-03-02T17:41:04.429Z,9.09
2023-03-02T17:43:36.212Z,9.13
2023-03-02T17:46:29.900Z,9.33
2023-03-02T17:48:58.377Z,9.07
2023-03-02T17:51:27.171Z,8.86
2023-03-02T17:53:55.408Z,8.97
2023-03-02T17:56:25.044Z,8.99
2023-03-02T17:58:59.625Z,8.85
2023-03-02T18:01:27.632Z,8.80
2023-03-02T18:03:54.530Z,8.85
2023-03-02T18:06:21.596Z,8.84
2023-03-02T18:08:49.562Z,8.80
2023-03-02T18:11:17.918Z,8.63
2023-03-02T18:13:44.450Z,8.75
2023-03-02T18:16:11.274Z,8.55
2023-03-02T18:18:38.090Z,8.52
2023-03-02T18:21:05.545Z,8.52
2023-03-02T18:23:32.604Z,8.50
2023-03-02T18:25:59.286Z,8.50
2023-03-02T18:28:25.992Z,8.43
2023-03-02T18:30:52.537Z,8.40
2023-03-02T18:33:19.125Z,8.34
2023-03-02T18:35:45.758Z,8.40
2023-03-02T18:38:12.234Z,8.20
2023-03-02T18:40:38.888Z,8.20
2023-03-02T18:43:05.488Z,8.19
2023-03-02T18:45:32.827Z,8.13
2023-03-02T18:48:00.140Z,8.02
2023-03-02T18:50:27.885Z,7.98
2023-03-02T18:52:54.631Z,8.15
2023-03-02T18:55:23.577Z,8.01
2023-03-02T18:57:50.400Z,8.03
2023-03-02T19:00:21.620Z,8.02
2023-03-02T19:02:48.484Z,8.02
2023-03-02T19:05:15.205Z,7.89
2023-03-02T19:07:41.719Z,7.85
2023-03-02T19:10:08.986Z,7.75
2023-03-02T19:12:35.560Z,7.70
2023-03-02T19:15:03.497Z,7.51
2023-03-02T19:17:30.042Z,7.46
2023-03-02T19:19:56.604Z,7.58
2023-03-02T19:22:23.091Z,7.58
2023-03-02T19:24:49.617Z,7.58
2023-03-02T19:27:16.131Z,7.39
2023-03-02T19:29:42.729Z,7.34
2023-03-02T19:32:11.049Z,7.36
2023-03-02T19:34:37.818Z,7.42
2023-03-02T19:37:05.415Z,7.30
2023-03-02T19:39:32.147Z,7.34
2023-03-02T19:41:58.675Z,7.32
2023-03-02T19:44:25.636Z,7.30
2023-03-02T19:46:52.222Z,7.11
2023-03-02T19:49:18.752Z,7.07
2023-03-02T19:51:45.294Z,7.19
2023-03-02T19:54:11.879Z,7.15
2023-03-02T19:56:40.223Z,7.12
2023-03-02T19:59:07.799Z,7.12
2023-03-02T20:01:34.415Z,6.99
2023-03-02T20:04:01.856Z,7.04
2023-03-02T20:06:32.332Z,6.95
2023-03-02T20:09:04.792Z,6.91
2023-03-02T20:11:31.456Z,6.94
2023-03-02T20:14:02.505Z,6.84
2023-03-02T20:16:36.366Z,6.91
2023-03-02T20:19:03.808Z,6.68
2023-03-02T20:21:32.044Z,6.77
2023-03-02T20:23:58.871Z,6.66
2023-03-02T20:26:26.008Z,6.72
2023-03-02T20:28:55.484Z,6.48
2023-03-02T20:31:24.515Z,6.58
2023-03-02T20:33:53.256Z,6.52
2023-03-02T20:36:27.127Z,6.48
2023-03-02T20:39:06.908Z,6.58
2023-03-02T20:41:33.558Z,6.58
2023-03-02T20:44:00.398Z,6.51
2023-03-02T20:46:31.053Z,6.44
2023-03-02T20:48:58.286Z,6.45
2023-03-02T20:51:26.450Z,6.35
2023-03-02T20:53:53.339Z,6.31
2023-03-02T20:56:20.533Z,6.32
2023-03-02T20:58:48.230Z,6.15
2023-03-02T21:01:16.300Z,6.16
2023-03-02T21:03:42.956Z,6.15
2023-03-02T21:06:10.400Z,6.15
2023-03-02T21:08:40.996Z,6.19
2023-03-02T21:11:15.601Z,6.14
2023-03-02T21:13:45.767Z,6.08
2023-03-02T21:16:18.517Z,6.05
2023-03-02T21:18:45.214Z,5.97
2023-03-02T21:21:11.754Z,5.94
2023-03-02T21:23:41.498Z,5.74
2023-03-02T21:26:10.625Z,5.87
2023-03-02T21:28:37.255Z,5.90
2023-03-02T21:31:04.100Z,5.74
2023-03-02T21:33:30.982Z,5.81
2023-03-02T21:35:57.943Z,5.71
2023-03-02T21:38:24.507Z,5.74
2023-03-02T21:40:51.093Z,5.66
2023-03-02T21:43:18.336Z,5.62
2023-03-02T21:45:44.904Z,5.64
2023-03-02T21:48:14.080Z,5.53
2023-03-02T21:50:40.978Z,5.44
2023-03-02T21:53:07.614Z,5.52
2023-03-02T21:55:34.860Z,5.55
2023-03-02T21:58:01.668Z,5.53
2023-03-02T22:00:32.581Z,5.46
2023-03-02T22:03:00.484Z,5.39
2023-03-02T22:05:27.336Z,5.40
2023-03-02T22:07:54.305Z,5.32
2023-03-02T22:10:32.477Z,5.44
2023-03-02T22:13:13.361Z,5.42
2023-03-02T22:15:41.200Z,5.22
2023-03-02T22:18:19.970Z,5.16
2023-03-02T22:20:49.356Z,5.21
2023-03-02T22:23:20.916Z,5.16
2023-03-02T22:25:50.759Z,5.17
2023-03-02T22:28:17.186Z,5.19
2023-03-02T22:30:44.169Z,5.04
2023-03-02T22:33:18.460Z,5.17
2023-03-02T22:35:45.160Z,5.02
2023-03-02T22:38:25.766Z,5.05
2023-03-02T22:40:53.741Z,4.93
2023-03-02T22:43:25.532Z,4.89
2023-03-02T22:46:20.505Z,5.10
2023-03-02T22:48:49.677Z,4.88
2023-03-02T22:51:22.233Z,4.78
2023-03-02T22:53:53.097Z,4.84
2023-03-02T22:56:37.296Z,4.82
2023-03-02T22:59:26.406Z,4.83
2023-03-02T23:02:01.474Z,4.79
2023-03-02T23:04:35.228Z,4.70
2023-03-02T23:07:11.276Z,4.69
2023-03-02T23:09:37.837Z,4.67
2023-03-02T23:12:22.857Z,4.69
2023-03-02T23:14:55.030Z,4.57
2023-03-02T23:17:39.584Z,4.66
2023-03-02T23:20:10.205Z,4.57
2023-03-02T23:22:39.051Z,4.58
2023-03-02T23:25:07.056Z,4.50
2023-03-02T23:27:33.636Z,4.53
2023-03-02T23:30:00.263Z,4.50
2023-03-02T23:32:27.106Z,4.51
2023-03-02T23:34:53.635Z,4.46
2023-03-02T23:37:20.151Z,4.44
2023-03-02T23:39:46.714Z,4.42
2023-03-02T23:42:13.316Z,4.43
2023-03-02T23:44:39.825Z,4.39
2023-03-02T23:47:06.366Z,4.29
2023-03-02T23:49:32.834Z,4.25
2023-03-02T23:51:59.314Z,4.26
2023-03-02T23:54:25.832Z,4.29
2023-03-02T23:56:52.480Z,4.21
2023-03-02T23:59:19.299Z,4.26
